High Level Airport
CYOJ : now visible

Airfield :











YOU CAN JOIN US ON...

 
LOGIN :

Register | Disclaimer

   EN    FR    IT 

 









Legend :    VFR   Marginal VFR   IFR   Intensive IFR   Very Intensive IFR
Visi :
Ceiling :
>= 8 km
>= 3000ft
5 to 8 km
1000 to 3000 ft
1500m to 5 km
500 to 1000 ft
800 to 1500m
200 to 500 ft
< 800m
< 200 ft
Symbols :   Thunderstorms  Fog  Heavy snow  Heavy precipitations  Wind > 20 kt







- Airport Elevation : 1110 ft
- IATA code : YOJ


CYOJ - High Level

CURRENT METAR :
  • 260400Z 34002KT 6SM -RA BKN039 BKN060 OVC084 12/11 A2991 RMK SC5SC2AC1 LAST STFD OBS/NXT 261300Z SLP139

EXPIRED METARs :
  • 260357Z 33003KT 280V350 6SM -RA BKN036 BKN060 OVC084 12/11 A2991 RMK SC5SC2AC1 SLP140
  • 260300Z 00000KT 15SM VCSH BKN048 OVC094 13/11 A2989 RMK SC6AC2 SLP133 DENSITY ALT 1200FT
  • 260200Z 03004KT 15SM VCSH BKN046 BKN060 OVC094 14/10 A2988 RMK SC5SC2AC1 SLP129 DENSITY ALT 1300FT

TAF TAF CYOJ
Valid from the 26 at 01:00 until the 26 at 13:00 UTC


260038Z 2601/2613 30006KT P6SM SCT040 BKN080
TEMPO 2601/2606 P6SM -SHRA BKN040 OVC080
FM260600 30006KT P6SM SCT020 BKN040
TEMPO 2606/2613 5SM -SHRA BR SCT008 OVC015 RMK NXT FCST BY 260700Z
No reported NOTAMs for that airfield.



MET'MAP, your aeronautical weather chart ! - Copyright ORBIFLY December 2007 - Disclaimer

ORBIFLY MET'MAP TEAM :

Programming & Development : Alexandra Zaïnal
Concept & Development : Baudouin d'Aumeries
Co-Development & Prog : Marc-Olivier Méhu
Technical & hardware support : Manuel Goepfert

Contact : metmap@orbifly.com




SOURCES & CREDITS :

   NOAA       Earth
Advisory